Time;durP1;ratioP1;P1;durP2;ratioP2;P2;SDS_P1;SDS_P2;PMS_P1;PMS_P2;Temp;Humidity;BMP_temperature;BMP_pressure;BME280_temperature;BME280_humidity;BME280_pressure;Samples;Min_cycle;Max_cycle;Signal;HPM_P1;HPM_P2
2022/06/06 00:00:32;;;;;;;22.20;14.05;;;;;;;;;;6178524;28;20153;-59
2022/06/06 00:03:41;;;;;;;19.75;13.85;;;;;;;;;;6176426;28;20409;-60
2022/06/06 00:06:42;;;;;;;;;;;;;;;;;;6178940;28;20556;-59
2022/06/06 00:09:43;;;;;;;23.00;14.95;;;;;;;;;;6179149;28;19925;-60
2022/06/06 00:12:44;;;;;;;21.60;14.88;;;;;;;;;;6183872;28;20145;-60
2022/06/06 00:15:45;;;;;;;22.60;15.20;;;;;;;;;;6180882;28;20089;-60
2022/06/06 00:18:45;;;;;;;21.50;14.32;;;;;;;;;;6185865;28;20130;-60
2022/06/06 00:21:47;;;;;;;25.17;15.13;;;;;;;;;;6182262;28;20093;-60
2022/06/06 00:24:47;;;;;;;23.95;15.38;;;;;;;;;;6180783;28;20082;-60
2022/06/06 00:27:48;;;;;;;25.47;16.17;;;;;;;;;;6179094;28;20398;-60
2022/06/06 00:30:55;;;;;;;26.40;15.70;;;;;;;;;;6174846;28;20050;-60
2022/06/06 00:37:29;;;;;;;25.75;16.00;;;;;;;;;;6179793;28;20050;-60
2022/06/06 00:40:30;;;;;;;26.38;15.63;;;;;;;;;;6180839;28;20057;-60
2022/06/06 00:43:30;;;;;;;23.48;15.02;;;;;;;;;;6179858;28;20126;-60
2022/06/06 00:46:36;;;;;;;23.85;14.93;;;;;;;;;;6179420;28;20425;-60
2022/06/06 00:49:42;;;;;;;24.80;15.45;;;;;;;;;;6179585;28;20500;-60
2022/06/06 00:52:47;;;;;;;24.42;15.75;;;;;;;;;;6178265;28;20058;-60
2022/06/06 00:55:53;;;;;;;24.48;15.88;;;;;;;;;;6180516;28;20065;-60
2022/06/06 00:58:59;;;;;;;24.50;15.75;;;;;;;;;;6182197;28;20105;-60
2022/06/06 01:02:01;;;;;;;24.63;16.38;;;;;;;;;;6178667;28;20046;-59
2022/06/06 01:05:02;;;;;;;24.13;15.93;;;;;;;;;;6182173;28;20097;-61
2022/06/06 01:08:03;;;;;;;24.27;16.43;;;;;;;;;;6182259;28;20521;-60
2022/06/06 01:11:04;;;;;;;;;;;;;;;;;;6174259;28;20097;-60
2022/06/06 01:14:07;;;;;;;21.00;15.00;;;;;;;;;;6177238;28;19930;-60
2022/06/06 01:17:29;;;;;;;22.88;14.98;;;;;;;;;;6177660;28;20089;-60
2022/06/06 01:20:53;;;;;;;;;;;;;;;;;;6177910;28;20075;-60
2022/06/06 01:24:13;;;;;;;23.45;14.88;;;;;;;;;;6180086;28;20013;-59
2022/06/06 01:27:19;;;;;;;22.67;15.27;;;;;;;;;;6181744;28;20051;-61
2022/06/06 01:30:28;;;;;;;25.05;15.90;;;;;;;;;;6187180;28;20100;-60
2022/06/06 01:33:28;;;;;;;23.67;15.80;;;;;;;;;;6185209;28;20576;-60
2022/06/06 01:36:31;;;;;;;23.23;16.15;;;;;;;;;;6178835;28;20138;-60
2022/06/06 01:39:32;;;;;;;23.20;15.75;;;;;;;;;;6178363;28;20549;-60
2022/06/06 01:42:43;;;;;;;25.48;16.23;;;;;;;;;;6175872;28;20077;-61
2022/06/06 01:45:58;;;;;;;25.40;15.80;;;;;;;;;;6170481;28;20062;-61
2022/06/06 01:49:00;;;;;;;25.05;16.20;;;;;;;;;;6177375;28;20104;-60
2022/06/06 01:52:08;;;;;;;27.43;15.57;;;;;;;;;;6181394;28;20042;-61
2022/06/06 01:55:08;;;;;;;23.10;15.18;;;;;;;;;;6187120;28;20054;-60
2022/06/06 01:58:15;;;;;;;25.77;16.98;;;;;;;;;;6176259;28;20562;-60
2022/06/06 02:01:15;;;;;;;24.98;16.23;;;;;;;;;;6179967;28;20050;-60
2022/06/06 02:04:18;;;;;;;25.95;15.73;;;;;;;;;;6174786;28;20140;-60
2022/06/06 02:07:19;;;;;;;25.63;15.90;;;;;;;;;;6180149;28;20051;-60
2022/06/06 02:10:20;;;;;;;26.38;17.77;;;;;;;;;;6182607;28;20150;-60
2022/06/06 02:13:21;;;;;;;26.33;16.80;;;;;;;;;;6186715;28;20046;-60
2022/06/06 02:16:23;;;;;;;28.05;16.48;;;;;;;;;;6168166;28;20498;-60
2022/06/06 02:19:24;;;;;;;;;;;;;;;;;;6177789;28;20420;-61
2022/06/06 02:22:25;;;;;;;27.13;16.88;;;;;;;;;;6179700;28;19929;-60
2022/06/06 02:25:26;;;;;;;25.73;16.27;;;;;;;;;;6180467;28;20046;-60
2022/06/06 02:28:27;;;;;;;27.13;17.45;;;;;;;;;;6174842;28;20544;-60
2022/06/06 02:31:28;;;;;;;25.77;16.17;;;;;;;;;;6179103;28;20054;-60
2022/06/06 02:34:29;;;;;;;25.87;17.33;;;;;;;;;;6181750;28;20089;-60
2022/06/06 02:37:29;;;;;;;28.48;18.13;;;;;;;;;;6176353;28;20303;-60
2022/06/06 02:40:33;;;;;;;31.23;17.63;;;;;;;;;;6182697;28;20050;-60
2022/06/06 02:43:43;;;;;;;30.83;18.83;;;;;;;;;;6178493;28;20080;-60
2022/06/06 02:46:43;;;;;;;28.95;18.75;;;;;;;;;;6180510;28;20078;-61
2022/06/06 02:49:44;;;;;;;30.75;18.67;;;;;;;;;;6176540;28;20049;-60
2022/06/06 02:52:45;;;;;;;31.33;18.60;;;;;;;;;;6181254;28;20127;-59
2022/06/06 02:55:46;;;;;;;29.67;18.30;;;;;;;;;;6185709;28;20073;-59
2022/06/06 02:58:47;;;;;;;31.90;18.38;;;;;;;;;;6180916;28;20533;-60
2022/06/06 03:01:48;;;;;;;29.83;17.58;;;;;;;;;;6182718;28;20055;-59
2022/06/06 03:04:48;;;;;;;30.30;18.88;;;;;;;;;;6186123;28;20706;-60
2022/06/06 03:08:07;;;;;;;30.52;17.63;;;;;;;;;;6186451;28;20043;-60
2022/06/06 03:11:24;;;;;;;31.55;17.90;;;;;;;;;;6188578;28;20188;-60
2022/06/06 03:15:03;;;;;;;31.10;17.88;;;;;;;;;;6183051;28;20070;-60
2022/06/06 03:21:56;;;;;;;33.70;19.00;;;;;;;;;;6179464;28;20051;-59
2022/06/06 03:25:09;;;;;;;32.10;19.52;;;;;;;;;;6159588;28;20131;-60
2022/06/06 03:28:28;;;;;;;31.45;18.83;;;;;;;;;;6175505;28;20097;-60
2022/06/06 03:31:38;;;;;;;32.83;19.50;;;;;;;;;;6184400;28;20042;-60
2022/06/06 03:34:54;;;;;;;29.23;19.35;;;;;;;;;;6181080;28;20090;-60
2022/06/06 03:37:58;;;;;;;33.88;20.00;;;;;;;;;;6179354;28;20056;-60
2022/06/06 03:41:43;;;;;;;30.00;18.45;;;;;;;;;;6182842;28;20085;-59
2022/06/06 03:45:20;;;;;;;28.38;18.27;;;;;;;;;;6076315;28;20057;-60
2022/06/06 03:48:45;;;;;;;30.70;18.48;;;;;;;;;;6184101;28;20141;-60
2022/06/06 03:52:14;;;;;;;28.83;18.30;;;;;;;;;;6187034;28;20057;-60
2022/06/06 03:55:33;;;;;;;32.08;18.48;;;;;;;;;;6186241;28;20401;-60
2022/06/06 03:58:34;;;;;;;35.17;18.85;;;;;;;;;;6186359;28;20200;-60
2022/06/06 04:01:37;;;;;;;31.80;20.10;;;;;;;;;;6183795;28;20042;-60
2022/06/06 04:04:38;;;;;;;33.10;20.52;;;;;;;;;;6181440;28;20057;-60
2022/06/06 04:07:39;;;;;;;32.77;19.47;;;;;;;;;;6178189;28;20047;-59
2022/06/06 04:10:58;;;;;;;33.53;20.45;;;;;;;;;;6188161;28;20558;-60
2022/06/06 04:13:58;;;;;;;34.92;21.10;;;;;;;;;;6184859;28;20140;-60
2022/06/06 04:17:23;;;;;;;34.22;19.83;;;;;;;;;;6181714;28;20038;-60
2022/06/06 04:20:35;;;;;;;36.45;20.42;;;;;;;;;;6173966;28;20446;-59
2022/06/06 04:24:08;;;;;;;37.43;20.10;;;;;;;;;;6178308;28;20439;-60
2022/06/06 04:27:23;;;;;;;40.95;21.85;;;;;;;;;;6181110;28;20097;-60
2022/06/06 04:30:45;;;;;;;36.50;21.13;;;;;;;;;;6184119;28;20165;-59
2022/06/06 04:33:56;;;;;;;38.13;20.42;;;;;;;;;;6181215;28;20074;-60
2022/06/06 04:37:28;;;;;;;33.40;20.60;;;;;;;;;;6179284;28;20108;-59
2022/06/06 04:40:36;;;;;;;41.83;21.67;;;;;;;;;;6167562;28;20477;-61
2022/06/06 04:43:53;;;;;;;38.90;21.35;;;;;;;;;;6169552;28;20262;-67
2022/06/06 04:46:58;;;;;;;35.88;21.90;;;;;;;;;;6167792;28;20097;-59
2022/06/06 04:50:03;;;;;;;37.97;21.35;;;;;;;;;;6170097;28;20741;-59
2022/06/06 04:53:09;;;;;;;35.67;21.13;;;;;;;;;;6171691;28;20093;-59
2022/06/06 04:56:14;;;;;;;35.05;20.63;;;;;;;;;;6187422;28;20401;-59
2022/06/06 04:59:16;;;;;;;32.45;20.55;;;;;;;;;;6181766;28;20062;-58
2022/06/06 05:02:19;;;;;;;32.85;19.33;;;;;;;;;;6170476;28;20086;-60
2022/06/06 05:05:26;;;;;;;33.97;19.88;;;;;;;;;;6174062;28;20058;-59
2022/06/06 05:09:15;;;;;;;33.58;19.77;;;;;;;;;;6175343;28;20054;-60
2022/06/06 05:12:47;;;;;;;29.95;18.00;;;;;;;;;;6025352;28;20064;-60
2022/06/06 05:16:11;;;;;;;32.75;19.02;;;;;;;;;;6178154;28;20054;-59
2022/06/06 05:19:36;;;;;;;33.97;19.35;;;;;;;;;;6182166;28;20145;-59
2022/06/06 05:23:09;;;;;;;34.28;19.67;;;;;;;;;;6183250;28;20513;-60
2022/06/06 05:26:24;;;;;;;33.13;19.33;;;;;;;;;;6181844;28;20050;-59
2022/06/06 05:29:28;;;;;;;33.92;19.50;;;;;;;;;;6171245;28;20524;-59
2022/06/06 05:32:41;;;;;;;31.35;19.23;;;;;;;;;;6183532;28;20054;-60
2022/06/06 05:36:13;;;;;;;32.67;19.33;;;;;;;;;;6181707;28;20567;-60
2022/06/06 05:39:32;;;;;;;31.10;18.47;;;;;;;;;;6183944;28;20046;-59
2022/06/06 05:42:35;;;;;;;35.03;19.98;;;;;;;;;;6170778;28;20057;-59
2022/06/06 05:45:52;;;;;;;37.08;20.70;;;;;;;;;;6188473;28;20101;-60
2022/06/06 05:49:42;;;;;;;32.13;19.63;;;;;;;;;;6179856;28;20050;-61
2022/06/06 05:53:07;;;;;;;36.83;22.75;;;;;;;;;;6075993;28;20680;-60
2022/06/06 05:56:29;;;;;;;31.17;19.45;;;;;;;;;;6177143;28;20108;-60
2022/06/06 06:00:04;;;;;;;31.42;18.58;;;;;;;;;;6177217;28;20077;-60
2022/06/06 06:03:13;;;;;;;30.55;18.92;;;;;;;;;;6178280;28;20054;-61
2022/06/06 06:06:54;;;;;;;28.83;17.80;;;;;;;;;;6179225;28;20054;-60
2022/06/06 06:10:05;;;;;;;29.15;18.58;;;;;;;;;;6179586;28;20057;-60
2022/06/06 06:13:21;;;;;;;26.25;18.67;;;;;;;;;;6179615;28;20544;-60
2022/06/06 06:16:27;;;;;;;29.92;18.05;;;;;;;;;;6177426;28;20069;-59
2022/06/06 06:19:41;;;;;;;30.52;18.67;;;;;;;;;;6175639;28;20077;-59
2022/06/06 06:22:53;;;;;;;28.60;18.73;;;;;;;;;;6176837;28;20485;-60
2022/06/06 06:25:55;;;;;;;29.08;18.60;;;;;;;;;;6175032;28;20051;-59
2022/06/06 06:28:59;;;;;;;45.90;28.08;;;;;;;;;;6175781;28;20508;-60
2022/06/06 06:32:19;;;;;;;34.28;20.48;;;;;;;;;;6176356;28;20051;-59
2022/06/06 06:35:32;;;;;;;41.47;26.98;;;;;;;;;;6171469;28;20096;-60
2022/06/06 06:38:54;;;;;;;51.35;31.63;;;;;;;;;;6174196;28;20057;-60
2022/06/06 06:42:17;;;;;;;54.78;33.65;;;;;;;;;;6179245;28;20505;-59
2022/06/06 06:45:32;;;;;;;30.10;18.23;;;;;;;;;;6179874;28;20089;-59
2022/06/06 06:48:44;;;;;;;26.65;17.25;;;;;;;;;;6179584;28;20039;-60
2022/06/06 06:51:53;;;;;;;29.48;18.38;;;;;;;;;;6182136;28;20062;-59
2022/06/06 06:54:59;;;;;;;29.88;18.20;;;;;;;;;;6181201;28;20042;-59
2022/06/06 06:58:19;;;;;;;30.60;19.02;;;;;;;;;;6176271;28;20056;-60
2022/06/06 07:01:25;;;;;;;27.95;18.55;;;;;;;;;;6176095;28;20061;-59
2022/06/06 07:11:48;;;;;;;28.60;17.55;;;;;;;;;;6179245;28;20120;-59
2022/06/06 07:15:13;;;;;;;26.95;17.75;;;;;;;;;;6176385;28;20161;-60
2022/06/06 07:18:18;;;;;;;24.98;17.05;;;;;;;;;;6172396;28;20057;-59
2022/06/06 07:21:20;;;;;;;25.92;16.42;;;;;;;;;;6161873;28;20046;-60
2022/06/06 07:24:23;;;;;;;25.67;16.90;;;;;;;;;;6172836;28;20046;-61
2022/06/06 07:27:24;;;;;;;24.23;17.10;;;;;;;;;;6167953;28;20050;-61
2022/06/06 07:30:33;;;;;;;20.55;15.95;;;;;;;;;;6176571;28;20073;-60
2022/06/06 07:33:39;;;;;;;26.23;17.05;;;;;;;;;;6183431;28;20042;-60
2022/06/06 07:36:40;;;;;;;26.65;17.52;;;;;;;;;;6187396;28;20088;-60
2022/06/06 07:40:05;;;;;;;25.10;17.40;;;;;;;;;;6181360;28;20042;-61
2022/06/06 07:43:23;;;;;;;22.42;16.50;;;;;;;;;;6187717;28;20061;-59
2022/06/06 07:46:41;;;;;;;22.60;16.50;;;;;;;;;;6179683;28;20452;-61
2022/06/06 07:49:57;;;;;;;25.85;16.80;;;;;;;;;;6186111;28;20054;-61
2022/06/06 07:53:30;;;;;;;23.48;17.92;;;;;;;;;;6183190;28;20086;-59
2022/06/06 07:56:37;;;;;;;27.42;18.17;;;;;;;;;;6172910;28;20081;-59
2022/06/06 08:00:08;;;;;;;24.05;17.17;;;;;;;;;;6182948;28;20050;-61
2022/06/06 08:03:41;;;;;;;26.25;18.15;;;;;;;;;;6183958;28;20054;-61
2022/06/06 08:07:14;;;;;;;27.25;17.35;;;;;;;;;;6180392;28;20054;-60
2022/06/06 08:10:33;;;;;;;23.65;16.75;;;;;;;;;;6180855;28;21371;-60
2022/06/06 08:13:46;;;;;;;26.23;18.00;;;;;;;;;;6179239;28;20050;-60
2022/06/06 08:16:54;;;;;;;30.25;17.90;;;;;;;;;;6184634;28;20137;-61
2022/06/06 08:20:17;;;;;;;26.40;19.17;;;;;;;;;;6185468;28;20129;-60
2022/06/06 08:23:19;;;;;;;32.42;21.65;;;;;;;;;;6178264;28;20154;-60
2022/06/06 08:26:21;;;;;;;25.70;18.05;;;;;;;;;;6186519;28;20046;-59
2022/06/06 08:29:22;;;;;;;25.95;17.88;;;;;;;;;;6181538;28;20147;-60
2022/06/06 08:32:23;;;;;;;22.55;16.92;;;;;;;;;;6179953;28;20140;-61
2022/06/06 08:35:41;;;;;;;25.60;17.80;;;;;;;;;;6182068;28;20042;-59
2022/06/06 08:38:58;;;;;;;25.42;17.23;;;;;;;;;;6163634;28;20514;-61
2022/06/06 08:42:14;;;;;;;23.20;17.17;;;;;;;;;;6181264;28;20081;-60
2022/06/06 08:45:14;;;;;;;23.63;17.92;;;;;;;;;;6181081;28;20050;-61
2022/06/06 08:48:53;;;;;;;22.53;17.40;;;;;;;;;;6182943;28;20133;-60
2022/06/06 08:52:04;;;;;;;25.50;18.23;;;;;;;;;;6164245;28;20050;-60
2022/06/06 08:55:27;;;;;;;24.52;17.88;;;;;;;;;;6185451;28;20477;-58
2022/06/06 08:58:53;;;;;;;26.15;18.33;;;;;;;;;;6179169;28;20052;-59
2022/06/06 09:02:22;;;;;;;26.08;18.40;;;;;;;;;;6145943;28;20152;-60
2022/06/06 09:05:46;;;;;;;26.27;19.75;;;;;;;;;;6175959;28;20089;-59
2022/06/06 09:09:03;;;;;;;27.90;18.90;;;;;;;;;;6180282;28;20050;-61
2022/06/06 09:12:41;;;;;;;25.50;19.08;;;;;;;;;;6183674;28;20082;-60
2022/06/06 09:16:00;;;;;;;26.15;18.95;;;;;;;;;;6181158;28;20506;-60
2022/06/06 09:19:15;;;;;;;30.70;22.08;;;;;;;;;;6177893;28;20050;-60
2022/06/06 09:22:46;;;;;;;38.38;25.25;;;;;;;;;;6182477;28;20097;-60
2022/06/06 09:26:06;;;;;;;31.50;19.85;;;;;;;;;;6180128;28;20053;-59
2022/06/06 09:29:31;;;;;;;26.70;19.58;;;;;;;;;;6177494;28;20077;-60
2022/06/06 09:33:02;;;;;;;29.20;19.65;;;;;;;;;;6180459;28;20097;-59
2022/06/06 09:36:18;;;;;;;24.73;18.75;;;;;;;;;;6179780;28;20201;-60
2022/06/06 09:39:33;;;;;;;27.92;19.65;;;;;;;;;;6181274;28;20177;-60
2022/06/06 09:42:44;;;;;;;31.30;18.95;;;;;;;;;;6181515;28;20505;-59
2022/06/06 09:46:16;;;;;;;30.25;18.98;;;;;;;;;;6175224;28;20072;-61
2022/06/06 09:49:41;;;;;;;27.75;19.55;;;;;;;;;;6179718;28;20737;-60
2022/06/06 09:53:15;;;;;;;37.95;21.38;;;;;;;;;;6181160;28;20056;-60
2022/06/06 10:00:42;;;;;;;28.02;21.17;;;;;;;;;;6181622;28;20046;-59
2022/06/06 10:03:49;;;;;;;31.63;20.75;;;;;;;;;;6182512;28;20066;-59
2022/06/06 10:07:14;;;;;;;31.48;20.83;;;;;;;;;;6180105;28;20046;-60
2022/06/06 10:10:33;;;;;;;30.10;21.05;;;;;;;;;;6179311;28;20133;-59
2022/06/06 10:13:40;;;;;;;27.77;20.17;;;;;;;;;;6184790;28;20061;-59
2022/06/06 10:16:49;;;;;;;27.98;21.08;;;;;;;;;;6182061;28;20104;-60
2022/06/06 10:19:53;;;;;;;25.80;20.23;;;;;;;;;;6181947;28;20097;-58
2022/06/06 10:23:08;;;;;;;29.25;20.17;;;;;;;;;;6180796;28;20093;-59
2022/06/06 10:26:12;;;;;;;30.58;19.95;;;;;;;;;;6152698;28;20683;-59
2022/06/06 10:33:21;;;;;;;26.95;20.20;;;;;;;;;;6154715;28;20409;-58
2022/06/06 10:36:46;;;;;;;25.17;19.55;;;;;;;;;;6151566;28;20094;-59
2022/06/06 10:40:24;;;;;;;27.63;19.85;;;;;;;;;;6155537;28;20051;-59
2022/06/06 10:43:41;;;;;;;25.88;19.38;;;;;;;;;;6155659;28;20069;-59
2022/06/06 10:47:07;;;;;;;30.73;22.02;;;;;;;;;;6155814;28;20074;-59
2022/06/06 10:50:16;;;;;;;26.58;20.38;;;;;;;;;;6155348;28;20074;-60
2022/06/06 10:53:42;;;;;;;32.30;21.35;;;;;;;;;;6154181;28;20042;-60
2022/06/06 10:56:55;;;;;;;26.85;19.50;;;;;;;;;;6152201;28;20298;-61
2022/06/06 10:59:58;;;;;;;26.77;19.90;;;;;;;;;;6159131;28;20494;-59
2022/06/06 11:03:23;;;;;;;29.50;20.98;;;;;;;;;;6156184;28;20046;-59
2022/06/06 11:06:30;;;;;;;25.70;19.92;;;;;;;;;;6153311;28;20753;-59
2022/06/06 11:09:58;;;;;;;30.40;20.52;;;;;;;;;;6159822;28;20090;-58
2022/06/06 11:13:15;;;;;;;27.10;20.50;;;;;;;;;;6158797;28;20081;-59
2022/06/06 11:16:45;;;;;;;25.17;19.48;;;;;;;;;;6160298;28;20449;-59
2022/06/06 11:20:08;;;;;;;24.75;18.67;;;;;;;;;;6163330;28;20078;-59
2022/06/06 11:23:41;;;;;;;29.33;18.88;;;;;;;;;;6163792;28;20074;-60
2022/06/06 11:26:51;;;;;;;26.63;19.10;;;;;;;;;;6161321;28;20579;-61
2022/06/06 11:30:09;;;;;;;25.23;19.92;;;;;;;;;;6163100;28;20082;-59
2022/06/06 11:33:48;;;;;;;25.58;20.50;;;;;;;;;;6160544;28;20051;-59
2022/06/06 11:37:01;;;;;;;26.33;20.48;;;;;;;;;;6110039;28;20106;-60
2022/06/06 11:40:37;;;;;;;27.08;19.85;;;;;;;;;;6162608;28;20504;-59
2022/06/06 11:44:04;;;;;;;28.65;21.23;;;;;;;;;;6147780;28;20062;-60
2022/06/06 11:47:21;;;;;;;28.42;19.70;;;;;;;;;;6158834;28;20105;-60
2022/06/06 11:50:48;;;;;;;25.83;19.77;;;;;;;;;;6160882;28;20128;-60
2022/06/06 11:54:10;;;;;;;45.03;31.65;;;;;;;;;;6162361;28;20054;-60
2022/06/06 11:57:31;;;;;;;54.92;40.03;;;;;;;;;;6158548;28;20833;-59
2022/06/06 12:00:47;;;;;;;;;;;;;;;;;;6160408;28;20055;-58
2022/06/06 12:04:21;;;;;;;40.35;30.67;;;;;;;;;;6158678;28;20077;-58
2022/06/06 12:07:30;;;;;;;29.23;22.08;;;;;;;;;;6158280;28;20042;-59
2022/06/06 12:10:45;;;;;;;27.40;20.80;;;;;;;;;;6160258;28;20097;-60
2022/06/06 12:14:14;;;;;;;30.92;23.25;;;;;;;;;;6162671;28;20108;-59
2022/06/06 12:17:23;;;;;;;33.20;22.15;;;;;;;;;;6156993;28;20146;-58
2022/06/06 12:20:49;;;;;;;27.13;20.67;;;;;;;;;;6159358;28;20077;-59
2022/06/06 12:24:18;;;;;;;31.92;22.70;;;;;;;;;;6160141;28;20132;-60
2022/06/06 12:27:35;;;;;;;33.17;24.77;;;;;;;;;;6159754;28;20074;-59
2022/06/06 12:30:57;;;;;;;38.25;28.55;;;;;;;;;;6160981;28;20867;-60
2022/06/06 12:34:13;;;;;;;32.58;22.30;;;;;;;;;;6158868;28;20218;-60
2022/06/06 12:37:25;;;;;;;28.77;21.95;;;;;;;;;;6161379;28;20097;-60
2022/06/06 12:40:36;;;;;;;37.72;24.80;;;;;;;;;;6160820;28;20065;-60
2022/06/06 12:43:56;;;;;;;32.22;22.60;;;;;;;;;;6159546;28;20073;-59
2022/06/06 12:47:20;;;;;;;29.67;21.08;;;;;;;;;;6153177;28;20105;-60
2022/06/06 12:50:41;;;;;;;29.73;22.08;;;;;;;;;;6162654;28;20078;-59
2022/06/06 12:54:24;;;;;;;27.63;22.00;;;;;;;;;;6161215;28;20498;-59
2022/06/06 12:57:53;;;;;;;27.75;20.13;;;;;;;;;;6131821;28;20042;-58
2022/06/06 13:04:47;;;;;;;32.53;21.10;;;;;;;;;;6160525;28;20100;-58
2022/06/06 13:08:01;;;;;;;31.02;22.13;;;;;;;;;;6158531;28;20104;-59
2022/06/06 13:11:33;;;;;;;27.42;21.05;;;;;;;;;;6161158;28;20077;-60
2022/06/06 13:14:48;;;;;;;28.38;20.90;;;;;;;;;;6159903;28;20580;-60
2022/06/06 13:18:07;;;;;;;26.02;18.42;;;;;;;;;;6157893;28;20141;-59
2022/06/06 13:21:19;;;;;;;24.33;17.08;;;;;;;;;;6157540;28;20058;-58
2022/06/06 13:24:42;;;;;;;21.98;16.50;;;;;;;;;;6155332;28;20221;-60
2022/06/06 13:27:56;;;;;;;25.75;16.92;;;;;;;;;;6157324;28;20070;-59
2022/06/06 13:31:05;;;;;;;21.02;16.45;;;;;;;;;;6158516;28;20079;-60
2022/06/06 13:34:33;;;;;;;24.38;17.38;;;;;;;;;;6157359;28;20054;-59
2022/06/06 13:37:50;;;;;;;22.63;16.33;;;;;;;;;;6157245;28;20153;-59
2022/06/06 13:41:23;;;;;;;26.67;14.65;;;;;;;;;;6160670;28;20059;-60
2022/06/06 13:44:26;;;;;;;22.92;14.85;;;;;;;;;;6158755;28;20082;-60
2022/06/06 13:47:49;;;;;;;20.33;14.40;;;;;;;;;;6154444;28;20050;-59
2022/06/06 13:51:23;;;;;;;19.15;13.35;;;;;;;;;;6160606;28;20074;-59
2022/06/06 13:54:36;;;;;;;18.30;12.50;;;;;;;;;;6159142;28;20582;-58
2022/06/06 13:57:54;;;;;;;18.45;12.38;;;;;;;;;;6156932;28;20082;-60
2022/06/06 14:01:23;;;;;;;20.27;11.75;;;;;;;;;;6156387;28;20066;-60
2022/06/06 14:04:53;;;;;;;18.08;11.40;;;;;;;;;;6157843;28;20086;-59
2022/06/06 14:08:15;;;;;;;14.65;9.98;;;;;;;;;;6159283;28;20066;-60
2022/06/06 14:11:51;;;;;;;15.63;9.98;;;;;;;;;;6158445;28;20097;-60
2022/06/06 14:15:00;;;;;;;16.40;9.32;;;;;;;;;;6159031;28;20122;-61
2022/06/06 14:18:06;;;;;;;15.05;8.77;;;;;;;;;;6155597;28;20268;-59
2022/06/06 14:21:06;;;;;;;13.15;8.27;;;;;;;;;;6159955;28;20046;-60
2022/06/06 14:24:11;;;;;;;12.80;8.33;;;;;;;;;;6159577;28;20080;-59
2022/06/06 14:27:13;;;;;;;11.48;7.57;;;;;;;;;;6156282;28;20055;-61
2022/06/06 14:30:34;;;;;;;13.20;7.82;;;;;;;;;;6157627;28;20178;-60
2022/06/06 14:33:35;;;;;;;13.55;7.40;;;;;;;;;;6157402;28;20065;-60
2022/06/06 14:36:37;;;;;;;12.43;7.38;;;;;;;;;;6157718;28;20889;-60
2022/06/06 14:39:42;;;;;;;13.88;6.85;;;;;;;;;;6158687;28;20462;-60
2022/06/06 14:42:53;;;;;;;11.15;6.97;;;;;;;;;;6157521;28;20078;-59
2022/06/06 14:45:57;;;;;;;11.77;6.40;;;;;;;;;;6158944;28;20693;-59
2022/06/06 14:48:59;;;;;;;10.07;6.78;;;;;;;;;;6159132;28;20132;-61
2022/06/06 14:52:15;;;;;;;11.93;7.00;;;;;;;;;;6161121;28;20494;-60
2022/06/06 14:55:20;;;;;;;10.32;6.00;;;;;;;;;;6162403;28;20123;-59
2022/06/06 14:58:23;;;;;;;11.52;6.35;;;;;;;;;;6158941;28;20039;-60
2022/06/06 15:01:26;;;;;;;16.02;7.18;;;;;;;;;;6163325;28;20102;-60
2022/06/06 15:04:28;;;;;;;10.32;5.82;;;;;;;;;;6162231;28;20097;-60
2022/06/06 15:07:40;;;;;;;10.90;5.45;;;;;;;;;;6158927;28;20069;-61
2022/06/06 15:10:50;;;;;;;;;;;;;;;;;;6163306;28;20061;-61
2022/06/06 15:13:55;;;;;;;8.07;5.18;;;;;;;;;;6158521;28;20726;-60
2022/06/06 15:16:57;;;;;;;11.32;5.20;;;;;;;;;;6163566;28;20487;-61
2022/06/06 15:20:00;;;;;;;11.98;5.00;;;;;;;;;;6163885;28;20138;-61
2022/06/06 15:23:16;;;;;;;8.70;4.68;;;;;;;;;;6161758;28;20210;-58
2022/06/06 15:26:31;;;;;;;10.45;4.53;;;;;;;;;;6161993;28;20079;-59
2022/06/06 15:29:45;;;;;;;8.70;4.90;;;;;;;;;;6160153;28;20058;-59
2022/06/06 15:33:00;;;;;;;8.70;4.72;;;;;;;;;;6162715;28;20051;-59
2022/06/06 15:36:04;;;;;;;8.77;4.90;;;;;;;;;;6157778;28;20055;-59
2022/06/06 15:39:34;;;;;;;8.55;4.47;;;;;;;;;;6163577;28;21333;-59
2022/06/06 15:42:44;;;;;;;8.45;4.78;;;;;;;;;;6164747;28;20608;-60
2022/06/06 15:45:57;;;;;;;8.73;4.82;;;;;;;;;;6161297;28;20085;-59
2022/06/06 15:49:30;;;;;;;10.57;5.20;;;;;;;;;;6163863;28;20057;-59
2022/06/06 15:52:45;;;;;;;10.23;5.43;;;;;;;;;;6167804;28;20326;-59
2022/06/06 15:55:59;;;;;;;14.25;5.55;;;;;;;;;;6166210;28;20092;-59
2022/06/06 15:59:30;;;;;;;8.73;5.22;;;;;;;;;;6164894;28;20676;-59
2022/06/06 16:02:57;;;;;;;6.85;4.80;;;;;;;;;;6164423;28;20066;-59
2022/06/06 16:05:59;;;;;;;8.15;5.03;;;;;;;;;;6125131;28;20473;-59
2022/06/06 16:09:23;;;;;;;8.10;5.03;;;;;;;;;;6159479;28;20736;-59
2022/06/06 16:12:56;;;;;;;9.45;4.88;;;;;;;;;;6161410;28;20078;-60
2022/06/06 16:16:42;;;;;;;9.18;4.78;;;;;;;;;;6161048;28;20078;-59
2022/06/06 16:19:51;;;;;;;7.53;4.38;;;;;;;;;;6163693;28;20100;-60
2022/06/06 16:22:57;;;;;;;9.10;4.70;;;;;;;;;;6161392;28;20506;-60
2022/06/06 16:26:11;;;;;;;6.75;4.60;;;;;;;;;;6164215;28;20155;-57
2022/06/06 16:29:37;;;;;;;10.32;5.20;;;;;;;;;;6163097;28;20109;-60
2022/06/06 16:32:47;;;;;;;7.00;4.93;;;;;;;;;;6161502;28;20078;-60
2022/06/06 16:35:52;;;;;;;11.75;5.55;;;;;;;;;;6160975;28;20077;-60
2022/06/06 16:38:59;;;;;;;10.63;4.93;;;;;;;;;;6156065;28;20479;-59
2022/06/06 16:49:06;;;;;;;8.40;5.22;;;;;;;;;;6156206;28;20084;-60
2022/06/06 16:52:38;;;;;;;10.60;5.55;;;;;;;;;;6159303;28;20050;-61
2022/06/06 16:56:04;;;;;;;15.02;6.07;;;;;;;;;;6158322;28;20050;-60
2022/06/06 16:59:26;;;;;;;8.52;5.95;;;;;;;;;;6158807;28;20085;-64
2022/06/06 17:02:42;;;;;;;8.32;5.53;;;;;;;;;;6158329;28;20340;-61
2022/06/06 17:09:25;;;;;;;10.55;6.70;;;;;;;;;;6160273;28;20043;-60
2022/06/06 17:12:36;;;;;;;10.73;6.80;;;;;;;;;;6157667;28;20051;-60
2022/06/06 17:15:43;;;;;;;9.82;6.85;;;;;;;;;;6153994;28;20061;-60
2022/06/06 17:19:04;;;;;;;9.80;6.72;;;;;;;;;;6150997;28;20058;-60
2022/06/06 17:22:12;;;;;;;11.00;6.63;;;;;;;;;;6158754;28;20067;-60
2022/06/06 17:25:43;;;;;;;11.18;6.68;;;;;;;;;;6161688;28;20165;-60
2022/06/06 17:29:07;;;;;;;11.13;6.97;;;;;;;;;;6163137;28;20047;-60
2022/06/06 17:32:16;;;;;;;14.20;6.82;;;;;;;;;;6159947;28;20087;-60
2022/06/06 17:35:19;;;;;;;12.77;7.70;;;;;;;;;;6161168;28;20054;-61
2022/06/06 17:38:47;;;;;;;13.50;8.32;;;;;;;;;;6158357;28;20078;-60
2022/06/06 17:42:09;;;;;;;13.18;7.95;;;;;;;;;;6156718;28;20055;-60
2022/06/06 17:45:26;;;;;;;15.30;9.10;;;;;;;;;;6158550;28;20086;-58
2022/06/06 17:49:03;;;;;;;15.73;9.00;;;;;;;;;;6160162;28;20062;-62
2022/06/06 17:52:42;;;;;;;12.45;8.88;;;;;;;;;;6160181;28;20554;-61
2022/06/06 17:56:06;;;;;;;15.90;9.38;;;;;;;;;;6158557;28;20140;-60
2022/06/06 17:59:23;;;;;;;16.27;10.10;;;;;;;;;;6159255;28;20141;-60
2022/06/06 18:02:32;;;;;;;16.17;10.55;;;;;;;;;;6160539;28;20050;-61
2022/06/06 18:05:49;;;;;;;15.68;10.48;;;;;;;;;;6163062;28;20054;-61
2022/06/06 18:09:23;;;;;;;15.98;10.35;;;;;;;;;;6162008;28;20058;-61
2022/06/06 18:12:48;;;;;;;16.83;10.65;;;;;;;;;;6153288;28;20066;-61
2022/06/06 18:16:02;;;;;;;17.05;9.90;;;;;;;;;;6153433;28;20058;-64
2022/06/06 18:19:07;;;;;;;17.02;10.65;;;;;;;;;;6158045;28;20057;-60
2022/06/06 18:22:14;;;;;;;14.27;9.57;;;;;;;;;;6157739;28;20177;-61
2022/06/06 18:25:23;;;;;;;15.00;9.60;;;;;;;;;;6157469;28;20177;-60
2022/06/06 18:29:20;;;;;;;14.07;8.95;;;;;;;;;;6154489;28;20039;-61
2022/06/06 18:32:34;;;;;;;16.05;8.77;;;;;;;;;;6061832;28;20102;-60
2022/06/06 18:35:37;;;;;;;13.30;8.25;;;;;;;;;;6154208;28;20039;-61
2022/06/06 18:38:44;;;;;;;12.73;8.25;;;;;;;;;;6158269;28;20206;-62
2022/06/06 18:41:56;;;;;;;14.23;7.95;;;;;;;;;;6159175;28;20058;-61
2022/06/06 18:45:39;;;;;;;11.95;8.02;;;;;;;;;;6158207;28;20505;-61
2022/06/06 18:48:43;;;;;;;13.55;8.55;;;;;;;;;;6059543;29;20154;-61
2022/06/06 18:51:47;;;;;;;12.55;8.05;;;;;;;;;;6155605;28;20173;-61
2022/06/06 18:54:48;;;;;;;15.15;8.75;;;;;;;;;;6153875;28;20046;-61
2022/06/06 18:58:21;;;;;;;15.80;8.27;;;;;;;;;;6155918;28;20128;-61
2022/06/06 19:01:42;;;;;;;16.02;8.45;;;;;;;;;;6158245;28;20798;-61
2022/06/06 19:04:47;;;;;;;13.00;8.70;;;;;;;;;;6159320;28;20054;-60
2022/06/06 19:08:12;;;;;;;16.90;9.27;;;;;;;;;;6155664;28;20051;-61
2022/06/06 19:11:20;;;;;;;17.08;10.15;;;;;;;;;;6157147;28;20101;-61
2022/06/06 19:14:25;;;;;;;68.53;38.20;;;;;;;;;;6158672;28;20069;-61
2022/06/06 19:17:37;;;;;;;15.60;10.00;;;;;;;;;;6155106;28;20490;-61
2022/06/06 19:20:49;;;;;;;14.63;8.52;;;;;;;;;;6156475;28;20171;-60
2022/06/06 19:23:56;;;;;;;17.67;9.30;;;;;;;;;;6157889;28;20082;-61
2022/06/06 19:27:07;;;;;;;39.05;23.15;;;;;;;;;;6157506;28;20092;-60
2022/06/06 19:30:16;;;;;;;22.42;14.15;;;;;;;;;;6157424;28;20652;-60
2022/06/06 19:33:24;;;;;;;26.00;16.33;;;;;;;;;;6158320;28;20101;-60
2022/06/06 19:36:27;;;;;;;49.58;30.80;;;;;;;;;;6161091;28;20074;-60